createdAt,value
2018-06-04T00:02:27.985Z,5.60
2018-06-04T00:04:56.179Z,6.10
2018-06-04T00:07:24.340Z,4.20
2018-06-04T00:09:52.607Z,4.10
2018-06-04T00:12:20.762Z,4.13
2018-06-04T00:14:48.976Z,5.90
2018-06-04T00:17:17.199Z,4.20
2018-06-04T00:19:45.410Z,4.03
2018-06-04T00:22:13.583Z,4.70
2018-06-04T00:24:41.766Z,3.73
2018-06-04T00:27:09.901Z,3.67
2018-06-04T00:29:38.248Z,13.30
2018-06-04T00:32:07.070Z,6.23
2018-06-04T00:34:35.211Z,4.03
2018-06-04T00:37:03.412Z,4.30
2018-06-04T00:39:31.572Z,7.10
2018-06-04T00:41:59.791Z,4.67
2018-06-04T00:44:27.956Z,4.47
2018-06-04T00:46:56.212Z,4.07
2018-06-04T00:49:24.380Z,5.20
2018-06-04T00:51:52.601Z,4.70
2018-06-04T00:54:20.750Z,4.77
2018-06-04T00:56:49.027Z,4.80
2018-06-04T00:59:17.230Z,5.10
2018-06-04T01:01:45.559Z,4.80
2018-06-04T01:04:13.622Z,4.77
2018-06-04T01:06:41.906Z,6.03
2018-06-04T01:09:10.741Z,5.67
2018-06-04T01:11:39.015Z,4.60
2018-06-04T01:14:07.193Z,5.90
2018-06-04T01:16:35.344Z,4.17
2018-06-04T01:19:03.507Z,5.43
2018-06-04T01:21:31.893Z,5.67
2018-06-04T01:24:00.009Z,5.87
2018-06-04T01:26:28.190Z,5.53
2018-06-04T01:28:56.396Z,5.00
2018-06-04T01:31:24.553Z,4.77
2018-06-04T01:33:52.653Z,5.03
2018-06-04T01:36:20.797Z,4.60
2018-06-04T01:38:49.009Z,5.17
2018-06-04T01:41:17.158Z,5.53
2018-06-04T01:43:45.342Z,5.10
2018-06-04T01:46:14.124Z,5.10
2018-06-04T01:48:42.281Z,7.33
2018-06-04T01:51:10.346Z,5.17
2018-06-04T01:53:38.604Z,6.07
2018-06-04T01:56:06.775Z,8.73
2018-06-04T01:58:34.919Z,6.53
2018-06-04T02:01:03.031Z,6.70
2018-06-04T02:03:31.218Z,4.87
2018-06-04T02:05:59.491Z,10.00
2018-06-04T02:08:27.605Z,7.03
2018-06-04T02:10:55.872Z,5.67
2018-06-04T02:13:24.094Z,6.17
2018-06-04T02:15:52.277Z,5.80
2018-06-04T02:18:20.554Z,8.40
2018-06-04T02:20:48.984Z,6.10
2018-06-04T02:23:17.727Z,6.17
2018-06-04T02:25:45.820Z,6.13
2018-06-04T02:28:13.913Z,6.50
2018-06-04T02:30:42.035Z,5.03
2018-06-04T02:33:10.252Z,6.03
2018-06-04T02:35:38.494Z,6.83
2018-06-04T02:38:06.743Z,6.30
2018-06-04T02:40:34.894Z,5.63
2018-06-04T02:43:03.186Z,5.40
2018-06-04T02:45:31.494Z,5.57
2018-06-04T02:47:59.730Z,5.83
2018-06-04T02:50:28.067Z,6.80
2018-06-04T02:52:56.351Z,6.03
2018-06-04T02:55:24.520Z,8.37
2018-06-04T02:57:52.685Z,6.97
2018-06-04T03:00:21.886Z,6.30
2018-06-04T03:02:50.110Z,8.70
2018-06-04T03:05:19.232Z,5.50
2018-06-04T03:07:47.474Z,6.40
2018-06-04T03:10:15.719Z,6.43
2018-06-04T03:12:43.810Z,6.37
2018-06-04T03:15:11.943Z,4.87
2018-06-04T03:17:40.097Z,6.50
2018-06-04T03:20:08.304Z,7.03
2018-06-04T03:22:36.596Z,6.33
2018-06-04T03:25:04.821Z,5.80
2018-06-04T03:27:33.163Z,6.55
2018-06-04T03:30:01.505Z,7.87
2018-06-04T03:32:29.797Z,6.50
2018-06-04T03:34:58.090Z,6.90
2018-06-04T03:37:26.221Z,7.20
2018-06-04T03:39:54.403Z,6.63
2018-06-04T03:42:23.088Z,6.15
2018-06-04T03:44:51.255Z,6.53
2018-06-04T03:47:19.427Z,8.00
2018-06-04T03:49:47.566Z,8.43
2018-06-04T03:52:15.706Z,8.47
2018-06-04T03:54:43.909Z,6.53
2018-06-04T03:57:12.147Z,6.20
2018-06-04T03:59:40.290Z,8.47
2018-06-04T04:02:08.445Z,6.93
2018-06-04T04:04:36.659Z,7.90
2018-06-04T04:07:04.828Z,7.50
2018-06-04T04:09:33.230Z,6.30
2018-06-04T04:12:01.417Z,7.20
2018-06-04T04:14:29.736Z,6.93
2018-06-04T04:16:58.248Z,8.10
2018-06-04T04:19:26.803Z,7.10
2018-06-04T04:22:24.486Z,8.33
2018-06-04T04:24:52.768Z,7.63
2018-06-04T04:27:20.945Z,8.07
2018-06-04T04:29:49.341Z,7.13
2018-06-04T04:32:17.559Z,7.63
2018-06-04T04:34:45.937Z,8.50
2018-06-04T04:37:14.265Z,8.17
2018-06-04T04:39:42.447Z,8.77
2018-06-04T04:42:10.768Z,6.77
2018-06-04T04:44:38.999Z,7.93
2018-06-04T04:47:07.134Z,8.43
2018-06-04T04:49:35.435Z,7.50
2018-06-04T04:52:03.625Z,7.93
2018-06-04T04:54:31.839Z,6.80
2018-06-04T04:57:00.279Z,7.03
2018-06-04T04:59:29.220Z,7.20
2018-06-04T05:01:57.574Z,7.87
2018-06-04T05:04:25.920Z,7.97
2018-06-04T05:06:54.158Z,7.93
2018-06-04T05:09:22.641Z,20.00
2018-06-04T05:11:50.828Z,7.73
2018-06-04T05:14:18.993Z,8.83
2018-06-04T05:16:47.216Z,8.37
2018-06-04T05:19:15.423Z,8.60
2018-06-04T05:21:43.875Z,8.23
2018-06-04T05:24:12.182Z,8.37
2018-06-04T05:26:40.410Z,9.73
2018-06-04T05:29:08.595Z,8.87
2018-06-04T05:31:36.857Z,9.20
2018-06-04T05:34:05.051Z,10.87
2018-06-04T05:36:34.412Z,10.80
2018-06-04T05:39:03.804Z,13.13
2018-06-04T05:41:32.553Z,10.77
2018-06-04T05:44:00.843Z,9.90
2018-06-04T05:46:29.193Z,9.40
2018-06-04T05:48:57.579Z,10.90
2018-06-04T05:51:25.765Z,10.10
2018-06-04T05:53:54.193Z,10.83
2018-06-04T05:56:22.483Z,18.27
2018-06-04T05:58:50.665Z,10.53
2018-06-04T06:01:18.994Z,10.33
2018-06-04T06:03:47.330Z,10.07
2018-06-04T06:06:15.547Z,9.50
2018-06-04T06:08:44.061Z,10.50
2018-06-04T06:11:12.248Z,9.03
2018-06-04T06:13:40.429Z,9.73
2018-06-04T06:16:08.775Z,9.70
2018-06-04T06:18:37.670Z,10.17
2018-06-04T06:21:05.974Z,10.50
2018-06-04T06:23:34.277Z,9.90
2018-06-04T06:26:02.516Z,9.10
2018-06-04T06:28:30.669Z,8.77
2018-06-04T06:30:58.917Z,8.20
2018-06-04T06:33:27.079Z,7.83
2018-06-04T06:35:55.611Z,7.10
2018-06-04T06:38:23.779Z,8.10
2018-06-04T06:40:52.204Z,7.20
2018-06-04T06:43:20.444Z,8.07
2018-06-04T06:45:49.017Z,9.67
2018-06-04T06:48:17.449Z,8.53
2018-06-04T06:50:45.659Z,7.60
2018-06-04T06:53:13.840Z,7.47
2018-06-04T06:55:41.930Z,8.30
2018-06-04T06:58:10.312Z,11.03
2018-06-04T07:00:38.973Z,6.77
2018-06-04T07:03:07.322Z,8.80
2018-06-04T07:05:35.478Z,9.37
2018-06-04T07:08:03.650Z,8.83
2018-06-04T07:10:31.995Z,10.43
2018-06-04T07:13:00.146Z,10.87
2018-06-04T07:15:28.312Z,8.93
2018-06-04T07:17:56.593Z,8.70
2018-06-04T07:20:24.801Z,9.43
2018-06-04T07:22:53.079Z,9.87
2018-06-04T07:25:21.313Z,12.20
2018-06-04T07:27:49.602Z,9.47
2018-06-04T07:30:18.003Z,9.37
2018-06-04T07:32:46.327Z,8.23
2018-06-04T07:35:14.721Z,8.73
2018-06-04T07:37:43.446Z,8.83
2018-06-04T07:40:12.043Z,13.70
2018-06-04T07:42:40.382Z,10.43
2018-06-04T07:45:08.541Z,9.00
2018-06-04T07:47:36.749Z,10.10
2018-06-04T07:50:05.010Z,8.97
2018-06-04T07:52:33.613Z,8.80
2018-06-04T07:55:01.852Z,10.20
2018-06-04T07:57:30.059Z,9.40
2018-06-04T07:59:58.374Z,8.60
2018-06-04T08:02:26.543Z,9.20
2018-06-04T08:04:54.819Z,10.90
2018-06-04T08:07:23.056Z,9.00
2018-06-04T08:09:51.220Z,10.47
2018-06-04T08:12:19.357Z,10.23
2018-06-04T08:14:48.043Z,9.50
2018-06-04T08:17:16.342Z,9.27
2018-06-04T08:19:45.267Z,8.27
2018-06-04T08:22:13.469Z,9.00
2018-06-04T08:24:41.626Z,9.77
2018-06-04T08:27:09.806Z,10.47
2018-06-04T08:29:38.100Z,11.03
2018-06-04T08:32:06.313Z,11.50
2018-06-04T08:34:34.449Z,9.87
2018-06-04T08:37:02.654Z,10.53
2018-06-04T08:39:30.877Z,9.00
2018-06-04T08:41:59.283Z,11.40
2018-06-04T08:44:27.495Z,10.20
2018-06-04T08:46:55.657Z,15.33
2018-06-04T08:49:23.887Z,8.90
2018-06-04T08:51:52.029Z,10.20
2018-06-04T08:54:20.277Z,9.57
2018-06-04T08:56:49.162Z,8.90
2018-06-04T08:59:17.541Z,11.00
2018-06-04T09:01:45.728Z,10.13
2018-06-04T09:04:13.837Z,11.63
2018-06-04T09:06:42.094Z,10.63
2018-06-04T09:09:10.801Z,9.23
2018-06-04T09:11:39.031Z,9.47
2018-06-04T09:14:07.369Z,11.77
2018-06-04T09:16:35.583Z,10.07
2018-06-04T09:19:03.740Z,11.17
2018-06-04T09:21:32.085Z,10.20
2018-06-04T09:24:00.480Z,11.83
2018-06-04T09:26:28.667Z,12.07
2018-06-04T09:28:56.869Z,11.90
2018-06-04T09:31:25.138Z,9.97
2018-06-04T09:33:53.791Z,10.33
2018-06-04T09:36:21.932Z,11.20
2018-06-04T09:38:50.139Z,10.23
2018-06-04T09:41:18.407Z,11.90
2018-06-04T09:43:46.653Z,10.20
2018-06-04T09:46:14.918Z,10.13
2018-06-04T09:48:43.291Z,10.60
2018-06-04T09:51:11.531Z,10.73
2018-06-04T09:53:39.796Z,10.87
2018-06-04T09:56:08.055Z,10.03
2018-06-04T09:58:36.279Z,10.70
2018-06-04T10:01:04.574Z,11.43
2018-06-04T10:03:32.689Z,10.00
2018-06-04T10:06:01.082Z,11.13
2018-06-04T10:08:29.349Z,10.00
2018-06-04T10:10:57.613Z,10.67
2018-06-04T10:13:25.794Z,10.07
2018-06-04T10:15:54.651Z,11.20
2018-06-04T10:18:23.094Z,11.10
2018-06-04T10:20:51.227Z,9.53
2018-06-04T10:23:19.505Z,8.93
2018-06-04T10:25:47.788Z,9.67
2018-06-04T10:28:15.937Z,10.83
2018-06-04T10:30:44.332Z,8.90
2018-06-04T10:33:12.618Z,9.30
2018-06-04T10:35:40.820Z,9.27
2018-06-04T10:38:09.160Z,10.20
2018-06-04T10:40:37.449Z,10.73
2018-06-04T10:43:05.765Z,9.83
2018-06-04T10:45:33.947Z,8.07
2018-06-04T10:48:02.198Z,9.00
2018-06-04T10:50:30.339Z,9.10
2018-06-04T10:52:59.627Z,8.83
2018-06-04T10:55:27.832Z,9.57
2018-06-04T10:57:56.010Z,8.17
2018-06-04T11:00:24.365Z,9.13
2018-06-04T11:02:52.868Z,9.07
2018-06-04T11:05:21.094Z,9.20
2018-06-04T11:07:49.316Z,9.20
2018-06-04T11:10:17.598Z,9.43
2018-06-04T11:12:45.861Z,8.17
2018-06-04T11:15:14.098Z,8.73
2018-06-04T11:17:42.310Z,9.13
2018-06-04T11:20:10.459Z,8.40
2018-06-04T11:22:45.517Z,8.27
2018-06-04T11:25:13.835Z,8.00
2018-06-04T11:27:42.061Z,8.30
2018-06-04T11:30:10.300Z,8.77
2018-06-04T11:32:38.625Z,8.23
2018-06-04T11:35:06.810Z,8.47
2018-06-04T11:37:35.151Z,8.50
2018-06-04T11:40:04.314Z,8.10
2018-06-04T11:42:32.682Z,7.17
2018-06-04T11:45:01.043Z,8.47
2018-06-04T11:47:29.343Z,6.30
2018-06-04T11:49:57.498Z,7.23
2018-06-04T11:52:26.116Z,6.40
2018-06-04T11:54:54.213Z,6.93
2018-06-04T11:57:22.482Z,6.60
2018-06-04T11:59:50.693Z,4.93
2018-06-04T12:02:18.872Z,6.03
2018-06-04T12:04:46.982Z,7.30
2018-06-04T12:07:15.170Z,5.03
2018-06-04T12:09:43.372Z,5.67
2018-06-04T12:12:11.526Z,3.97
2018-06-04T12:14:39.697Z,4.27
2018-06-04T12:17:08.088Z,4.90
2018-06-04T12:19:36.216Z,4.20
2018-06-04T12:22:04.891Z,4.20
2018-06-04T12:24:33.048Z,4.50
2018-06-04T12:27:01.289Z,5.00
2018-06-04T12:29:29.483Z,5.30
2018-06-04T12:31:57.685Z,6.60
2018-06-04T12:34:26.070Z,6.17
2018-06-04T12:36:54.385Z,6.57
2018-06-04T12:39:22.486Z,6.20
2018-06-04T12:41:50.748Z,6.30
2018-06-04T12:44:19.006Z,7.00
2018-06-04T12:46:47.185Z,7.13
2018-06-04T12:49:15.462Z,7.13
2018-06-04T12:51:43.674Z,7.10
2018-06-04T12:54:12.462Z,5.70
2018-06-04T12:56:40.663Z,5.77
2018-06-04T12:59:09.240Z,6.83
2018-06-04T13:01:37.453Z,7.50
2018-06-04T13:04:05.802Z,6.80
2018-06-04T13:06:33.899Z,6.57
2018-06-04T13:09:02.801Z,6.47
2018-06-04T13:11:30.963Z,7.47
2018-06-04T13:13:59.163Z,7.10
2018-06-04T13:16:27.656Z,7.63
2018-06-04T13:18:55.951Z,7.00
2018-06-04T13:21:24.125Z,6.60
2018-06-04T13:23:52.305Z,7.73
2018-06-04T13:26:20.555Z,6.00
2018-06-04T13:28:48.787Z,5.90
2018-06-04T13:31:17.000Z,5.87
2018-06-04T13:33:45.285Z,5.90
2018-06-04T13:36:14.051Z,5.50
2018-06-04T13:38:42.224Z,7.90
2018-06-04T13:41:10.419Z,6.03
2018-06-04T13:43:38.593Z,5.90
2018-06-04T13:46:06.849Z,5.60
2018-06-04T13:48:35.036Z,5.20
2018-06-04T13:51:03.299Z,5.27
2018-06-04T13:53:31.572Z,4.57
2018-06-04T13:55:59.973Z,4.70
2018-06-04T13:58:28.243Z,5.47
2018-06-04T14:00:56.529Z,5.07
2018-06-04T14:03:24.676Z,4.97
2018-06-04T14:05:52.955Z,5.40
2018-06-04T14:08:21.360Z,5.03
2018-06-04T14:10:49.607Z,4.97
2018-06-04T14:13:17.882Z,5.83
2018-06-04T14:15:46.178Z,4.00
2018-06-04T14:18:15.057Z,5.17
2018-06-04T14:20:43.737Z,4.17
2018-06-04T14:23:11.912Z,3.70
2018-06-04T14:25:40.093Z,3.90
2018-06-04T14:28:08.973Z,4.03
2018-06-04T14:30:37.123Z,4.17
2018-06-04T14:33:05.353Z,3.77
2018-06-04T14:35:33.545Z,4.63
2018-06-04T14:38:01.786Z,4.43
2018-06-04T14:40:30.032Z,5.37
2018-06-04T14:42:58.200Z,4.30
2018-06-04T14:45:26.398Z,4.73
2018-06-04T14:47:54.456Z,4.07
2018-06-04T14:50:22.634Z,4.70
2018-06-04T14:52:50.929Z,4.67
2018-06-04T14:55:19.752Z,4.40
2018-06-04T14:57:48.083Z,4.60
2018-06-04T15:00:16.286Z,6.40
2018-06-04T15:02:44.458Z,3.73
2018-06-04T15:05:12.621Z,3.93
2018-06-04T15:07:40.864Z,4.17
2018-06-04T15:10:09.319Z,4.40
2018-06-04T15:12:37.530Z,4.07
2018-06-04T15:15:06.329Z,3.50
2018-06-04T15:17:34.587Z,3.80
2018-06-04T15:20:02.961Z,3.70
2018-06-04T15:22:31.148Z,4.07
2018-06-04T15:24:59.281Z,4.40
2018-06-04T15:27:27.495Z,4.17
2018-06-04T15:29:55.738Z,4.30
2018-06-04T15:32:24.305Z,4.53
2018-06-04T15:34:52.432Z,5.30
2018-06-04T15:37:21.193Z,5.33
2018-06-04T15:39:49.338Z,4.27
2018-06-04T15:42:17.577Z,4.20
2018-06-04T15:44:45.816Z,3.87
2018-06-04T15:47:14.075Z,4.77
2018-06-04T15:49:45.090Z,5.20
2018-06-04T15:52:13.266Z,4.30
2018-06-04T15:54:41.418Z,4.80
2018-06-04T15:57:09.647Z,5.33
2018-06-04T15:59:38.421Z,5.10
2018-06-04T16:02:06.674Z,5.73
2018-06-04T16:04:34.842Z,5.00
2018-06-04T16:07:02.879Z,5.27
2018-06-04T16:09:31.156Z,4.97
2018-06-04T16:12:00.164Z,4.87
2018-06-04T16:14:28.538Z,5.77
2018-06-04T16:16:56.766Z,4.73
2018-06-04T16:19:25.562Z,5.10
2018-06-04T16:21:53.761Z,5.80
2018-06-04T16:24:22.149Z,5.20
2018-06-04T16:26:50.368Z,6.17
2018-06-04T16:29:18.558Z,4.97
2018-06-04T16:31:46.847Z,5.10
2018-06-04T16:34:15.093Z,6.27
2018-06-04T16:36:43.574Z,6.17
2018-06-04T16:39:11.807Z,5.80
2018-06-04T16:41:40.076Z,5.67
2018-06-04T16:44:08.349Z,5.30
2018-06-04T16:46:36.543Z,5.53
2018-06-04T16:49:04.857Z,5.43
2018-06-04T16:51:33.051Z,4.57
2018-06-04T16:54:01.322Z,5.60
2018-06-04T16:56:30.344Z,5.60
2018-06-04T16:58:58.526Z,5.10
2018-06-04T17:01:26.738Z,4.70
2018-06-04T17:03:55.046Z,5.47
2018-06-04T17:06:23.179Z,4.97
2018-06-04T17:08:51.693Z,4.77
2018-06-04T17:11:20.042Z,5.60
2018-06-04T17:13:48.517Z,4.87
2018-06-04T17:16:16.981Z,5.83
2018-06-04T17:18:45.336Z,5.60
2018-06-04T17:21:16.749Z,5.27
2018-06-04T17:23:46.494Z,5.60
2018-06-04T17:26:14.983Z,5.23
2018-06-04T17:28:43.188Z,4.90
2018-06-04T17:31:11.354Z,5.27
2018-06-04T17:33:39.815Z,5.23
2018-06-04T17:36:08.357Z,4.67
2018-06-04T17:38:36.643Z,5.47
2018-06-04T17:41:05.080Z,5.13
2018-06-04T17:43:33.979Z,5.33
2018-06-04T17:46:02.255Z,4.60
2018-06-04T17:48:30.633Z,5.07
2018-06-04T17:50:58.874Z,5.07
2018-06-04T17:53:27.317Z,5.67
2018-06-04T17:55:55.811Z,4.80
2018-06-04T17:58:24.203Z,5.13
2018-06-04T18:00:52.559Z,5.20
2018-06-04T18:03:21.081Z,4.53
2018-06-04T18:05:49.721Z,5.10
2018-06-04T18:08:18.043Z,5.43
2018-06-04T18:10:46.374Z,5.33
2018-06-04T18:13:14.742Z,4.80
2018-06-04T18:15:43.455Z,4.80
2018-06-04T18:18:12.090Z,5.23
2018-06-04T18:20:40.579Z,4.60
2018-06-04T18:23:08.984Z,6.00
2018-06-04T18:25:37.478Z,5.20
2018-06-04T18:28:05.701Z,5.53
2018-06-04T18:30:34.000Z,5.37
2018-06-04T18:33:02.182Z,5.00
2018-06-04T18:35:30.376Z,4.60
2018-06-04T18:37:58.639Z,4.93
2018-06-04T18:40:27.163Z,5.20
2018-06-04T18:42:55.402Z,5.20
2018-06-04T18:45:23.798Z,5.77
2018-06-04T18:47:53.029Z,4.70
2018-06-04T18:50:21.386Z,6.57
2018-06-04T18:52:49.888Z,4.67
2018-06-04T18:55:18.299Z,7.80
2018-06-04T18:57:46.982Z,5.47
2018-06-04T19:00:15.263Z,4.97
2018-06-04T19:02:43.539Z,4.73
2018-06-04T19:05:11.865Z,4.80
2018-06-04T19:07:40.247Z,4.60
2018-06-04T19:10:08.575Z,4.37
2018-06-04T19:12:37.091Z,5.67
2018-06-04T19:15:06.171Z,5.20
2018-06-04T19:17:34.567Z,5.80
2018-06-04T19:20:03.125Z,5.70
2018-06-04T19:22:31.448Z,5.20
2018-06-04T19:25:00.047Z,5.33
2018-06-04T19:27:28.604Z,5.30
2018-06-04T19:29:56.978Z,5.30
2018-06-04T19:32:25.547Z,5.23
2018-06-04T19:34:53.920Z,5.63
2018-06-04T19:37:22.402Z,5.87
2018-06-04T19:39:50.683Z,5.90
2018-06-04T19:42:19.218Z,5.53
2018-06-04T19:44:47.661Z,5.80
2018-06-04T19:47:15.997Z,6.97
2018-06-04T19:49:44.278Z,6.07
2018-06-04T19:52:12.642Z,6.50
2018-06-04T19:54:40.943Z,5.70
2018-06-04T19:57:09.402Z,6.27
2018-06-04T19:59:38.183Z,5.50
2018-06-04T20:02:06.608Z,6.90
2018-06-04T20:04:34.861Z,6.10
2018-06-04T20:07:08.938Z,6.20
2018-06-04T20:09:37.250Z,6.60
2018-06-04T20:12:05.562Z,6.33
2018-06-04T20:14:33.950Z,6.77
2018-06-04T20:17:02.369Z,7.10
2018-06-04T20:19:30.510Z,6.60
2018-06-04T20:21:58.886Z,6.30
2018-06-04T20:24:27.094Z,7.10
2018-06-04T20:26:55.396Z,6.67
2018-06-04T20:29:23.585Z,8.50
2018-06-04T20:31:51.812Z,7.10
2018-06-04T20:34:20.109Z,7.17
2018-06-04T20:36:48.845Z,6.73
2018-06-04T20:39:17.083Z,7.50
2018-06-04T20:41:45.310Z,9.23
2018-06-04T20:44:13.530Z,6.77
2018-06-04T20:46:41.841Z,6.80
2018-06-04T20:49:10.484Z,7.57
2018-06-04T20:51:38.705Z,7.27
2018-06-04T20:54:06.879Z,7.23
2018-06-04T20:56:35.259Z,5.97
2018-06-04T20:59:03.690Z,7.33
2018-06-04T21:01:32.001Z,6.90
2018-06-04T21:04:00.170Z,6.80
2018-06-04T21:06:28.356Z,6.40
2018-06-04T21:08:56.609Z,7.20
2018-06-04T21:11:24.750Z,6.60
2018-06-04T21:13:53.292Z,6.80
2018-06-04T21:16:21.454Z,6.67
2018-06-04T21:18:50.297Z,7.17
2018-06-04T21:21:18.523Z,7.70
2018-06-04T21:23:46.764Z,7.53
2018-06-04T21:26:14.978Z,7.53
2018-06-04T21:28:43.257Z,7.20
2018-06-04T21:31:11.461Z,7.47
2018-06-04T21:33:39.727Z,7.10
2018-06-04T21:36:08.072Z,7.90
2018-06-04T21:38:36.342Z,7.53
2018-06-04T21:41:04.641Z,6.80
2018-06-04T21:43:32.872Z,6.73
2018-06-04T21:46:01.088Z,7.83
2018-06-04T21:48:29.300Z,7.60
2018-06-04T21:50:57.632Z,7.43
2018-06-04T21:53:25.803Z,7.50
2018-06-04T21:55:55.031Z,7.77
2018-06-04T21:58:23.234Z,7.20
2018-06-04T22:00:51.705Z,7.10
2018-06-04T22:03:19.917Z,7.40
2018-06-04T22:05:48.041Z,7.30
2018-06-04T22:08:16.190Z,6.30
2018-06-04T22:10:44.563Z,7.27
2018-06-04T22:13:12.750Z,8.47
2018-06-04T22:15:41.089Z,7.80
2018-06-04T22:18:09.218Z,8.37
2018-06-04T22:20:37.426Z,7.50
2018-06-04T22:23:05.929Z,12.10
2018-06-04T22:25:34.198Z,6.50
2018-06-04T22:28:02.331Z,7.50
2018-06-04T22:30:30.469Z,7.50
2018-06-04T22:32:59.036Z,7.13
2018-06-04T22:35:27.250Z,5.70
2018-06-04T22:37:55.394Z,6.70
2018-06-04T22:40:23.536Z,7.20
2018-06-04T22:42:53.414Z,7.70
2018-06-04T22:45:21.609Z,7.60
2018-06-04T22:47:49.730Z,7.63
2018-06-04T22:50:17.862Z,6.87
2018-06-04T22:52:46.039Z,7.43
2018-06-04T22:55:14.147Z,7.53
2018-06-04T22:57:42.309Z,6.70
2018-06-04T23:00:23.185Z,6.57
2018-06-04T23:02:51.316Z,8.80
2018-06-04T23:05:19.428Z,7.23
2018-06-04T23:07:47.703Z,8.07
2018-06-04T23:10:15.961Z,7.47
2018-06-04T23:12:44.165Z,7.73
2018-06-04T23:15:13.153Z,7.70
2018-06-04T23:17:41.220Z,7.67
2018-06-04T23:20:09.393Z,7.33
2018-06-04T23:22:37.526Z,7.40
2018-06-04T23:25:05.699Z,8.10
2018-06-04T23:27:33.767Z,8.10
2018-06-04T23:30:03.176Z,7.50
2018-06-04T23:32:31.247Z,7.23
2018-06-04T23:34:59.311Z,8.13
2018-06-04T23:37:27.448Z,7.30
2018-06-04T23:39:58.894Z,7.57
2018-06-04T23:42:26.950Z,7.13
2018-06-04T23:44:55.061Z,7.90
2018-06-04T23:47:23.189Z,7.97
2018-06-04T23:49:58.855Z,7.93
2018-06-04T23:52:27.016Z,7.40
2018-06-04T23:54:55.150Z,7.50
2018-06-04T23:57:23.293Z,7.33
2018-06-04T23:59:51.431Z,8.00
